sensor_id;sensor_type;location;lat;lon;timestamp;temperature;humidity
12470;DHT22;36499;46.484;13.832;2023-06-19T00:00:45;14.20;99.90
12470;DHT22;36499;46.484;13.832;2023-06-19T00:03:12;14.20;99.90
12470;DHT22;36499;46.484;13.832;2023-06-19T00:05:39;14.20;99.90
12470;DHT22;36499;46.484;13.832;2023-06-19T00:08:06;14.20;99.90
12470;DHT22;36499;46.484;13.832;2023-06-19T00:10:33;14.20;99.90
12470;DHT22;36499;46.484;13.832;2023-06-19T00:13:00;14.20;99.90
12470;DHT22;36499;46.484;13.832;2023-06-19T00:15:29;14.20;99.90
12470;DHT22;36499;46.484;13.832;2023-06-19T00:17:56;14.20;99.90
12470;DHT22;36499;46.484;13.832;2023-06-19T00:20:24;14.20;99.90
12470;DHT22;36499;46.484;13.832;2023-06-19T00:22:51;14.10;99.90
12470;DHT22;36499;46.484;13.832;2023-06-19T00:25:18;14.10;99.90
12470;DHT22;36499;46.484;13.832;2023-06-19T00:27:46;14.20;99.90
12470;DHT22;36499;46.484;13.832;2023-06-19T00:30:13;14.10;99.90
12470;DHT22;36499;46.484;13.832;2023-06-19T00:32:42;14.10;99.90
12470;DHT22;36499;46.484;13.832;2023-06-19T00:35:13;14.10;99.90
12470;DHT22;36499;46.484;13.832;2023-06-19T00:37:41;14.00;99.90
12470;DHT22;36499;46.484;13.832;2023-06-19T00:40:15;13.90;99.90
12470;DHT22;36499;46.484;13.832;2023-06-19T00:42:47;13.90;99.90
12470;DHT22;36499;46.484;13.832;2023-06-19T00:45:14;13.80;99.90
12470;DHT22;36499;46.484;13.832;2023-06-19T00:47:42;13.70;99.90
12470;DHT22;36499;46.484;13.832;2023-06-19T00:50:10;13.70;99.90
12470;DHT22;36499;46.484;13.832;2023-06-19T00:52:38;13.80;99.90
12470;DHT22;36499;46.484;13.832;2023-06-19T00:55:07;13.80;99.90
12470;DHT22;36499;46.484;13.832;2023-06-19T00:57:35;13.80;99.90
12470;DHT22;36499;46.484;13.832;2023-06-19T01:00:03;13.80;99.90
12470;DHT22;36499;46.484;13.832;2023-06-19T01:02:33;13.80;99.90
12470;DHT22;36499;46.484;13.832;2023-06-19T01:05:02;13.90;99.90
12470;DHT22;36499;46.484;13.832;2023-06-19T01:07:46;13.90;99.90
12470;DHT22;36499;46.484;13.832;2023-06-19T01:10:21;13.80;99.90
12470;DHT22;36499;46.484;13.832;2023-06-19T01:12:56;13.80;99.90
12470;DHT22;36499;46.484;13.832;2023-06-19T01:15:25;13.80;99.90
12470;DHT22;36499;46.484;13.832;2023-06-19T01:17:54;13.70;99.90
12470;DHT22;36499;46.484;13.832;2023-06-19T01:20:27;13.70;99.90
12470;DHT22;36499;46.484;13.832;2023-06-19T01:22:56;13.70;99.90
12470;DHT22;36499;46.484;13.832;2023-06-19T01:25:23;13.60;99.90
12470;DHT22;36499;46.484;13.832;2023-06-19T01:27:51;13.60;99.90
12470;DHT22;36499;46.484;13.832;2023-06-19T01:30:19;13.70;99.90
12470;DHT22;36499;46.484;13.832;2023-06-19T01:32:52;13.60;99.90
12470;DHT22;36499;46.484;13.832;2023-06-19T01:35:26;13.50;99.90
12470;DHT22;36499;46.484;13.832;2023-06-19T01:37:56;13.50;99.90
12470;DHT22;36499;46.484;13.832;2023-06-19T01:40:26;13.50;99.90
12470;DHT22;36499;46.484;13.832;2023-06-19T01:42:58;13.50;99.90
12470;DHT22;36499;46.484;13.832;2023-06-19T01:45:27;13.40;99.90
12470;DHT22;36499;46.484;13.832;2023-06-19T01:47:55;13.40;99.90
12470;DHT22;36499;46.484;13.832;2023-06-19T01:50:23;13.40;99.90
12470;DHT22;36499;46.484;13.832;2023-06-19T01:52:51;13.30;99.90
12470;DHT22;36499;46.484;13.832;2023-06-19T01:55:20;13.30;99.90
12470;DHT22;36499;46.484;13.832;2023-06-19T01:57:47;13.30;99.90
12470;DHT22;36499;46.484;13.832;2023-06-19T02:00:15;13.30;99.90
12470;DHT22;36499;46.484;13.832;2023-06-19T02:02:42;13.30;99.90
12470;DHT22;36499;46.484;13.832;2023-06-19T02:05:10;13.20;99.90
12470;DHT22;36499;46.484;13.832;2023-06-19T02:07:38;13.20;99.90
12470;DHT22;36499;46.484;13.832;2023-06-19T02:10:06;13.20;99.90
12470;DHT22;36499;46.484;13.832;2023-06-19T02:12:36;13.10;99.90
12470;DHT22;36499;46.484;13.832;2023-06-19T02:15:03;13.10;99.90
12470;DHT22;36499;46.484;13.832;2023-06-19T02:17:31;13.10;99.90
12470;DHT22;36499;46.484;13.832;2023-06-19T02:19:58;13.10;99.90
12470;DHT22;36499;46.484;13.832;2023-06-19T02:22:25;13.10;99.90
12470;DHT22;36499;46.484;13.832;2023-06-19T02:24:52;13.10;99.90
12470;DHT22;36499;46.484;13.832;2023-06-19T02:27:19;13.10;99.90
12470;DHT22;36499;46.484;13.832;2023-06-19T02:29:47;13.10;99.90
12470;DHT22;36499;46.484;13.832;2023-06-19T02:32:14;13.10;99.90
12470;DHT22;36499;46.484;13.832;2023-06-19T02:34:41;13.10;99.90
12470;DHT22;36499;46.484;13.832;2023-06-19T02:37:09;13.20;99.90
12470;DHT22;36499;46.484;13.832;2023-06-19T02:39:36;13.10;99.90
12470;DHT22;36499;46.484;13.832;2023-06-19T02:42:04;13.00;99.90
12470;DHT22;36499;46.484;13.832;2023-06-19T02:44:31;13.00;99.90
12470;DHT22;36499;46.484;13.832;2023-06-19T02:47:00;13.00;99.90
12470;DHT22;36499;46.484;13.832;2023-06-19T02:49:27;12.90;99.90
12470;DHT22;36499;46.484;13.832;2023-06-19T02:51:54;12.90;99.90
12470;DHT22;36499;46.484;13.832;2023-06-19T02:54:22;12.90;99.90
12470;DHT22;36499;46.484;13.832;2023-06-19T02:56:49;12.80;99.90
12470;DHT22;36499;46.484;13.832;2023-06-19T02:59:16;12.80;99.90
12470;DHT22;36499;46.484;13.832;2023-06-19T03:01:43;12.80;99.90
12470;DHT22;36499;46.484;13.832;2023-06-19T03:04:11;12.80;99.90
12470;DHT22;36499;46.484;13.832;2023-06-19T03:06:39;12.80;99.90
12470;DHT22;36499;46.484;13.832;2023-06-19T03:09:07;12.80;99.90
12470;DHT22;36499;46.484;13.832;2023-06-19T03:11:38;12.80;99.90
12470;DHT22;36499;46.484;13.832;2023-06-19T03:14:05;12.80;99.90
12470;DHT22;36499;46.484;13.832;2023-06-19T03:16:35;12.80;99.90
12470;DHT22;36499;46.484;13.832;2023-06-19T03:19:02;12.70;99.90
12470;DHT22;36499;46.484;13.832;2023-06-19T03:21:30;12.70;99.90
12470;DHT22;36499;46.484;13.832;2023-06-19T03:23:57;12.70;99.90
12470;DHT22;36499;46.484;13.832;2023-06-19T03:26:25;12.70;99.90
12470;DHT22;36499;46.484;13.832;2023-06-19T03:28:52;12.80;99.90
12470;DHT22;36499;46.484;13.832;2023-06-19T03:31:19;12.80;99.90
12470;DHT22;36499;46.484;13.832;2023-06-19T03:33:46;12.80;99.90
12470;DHT22;36499;46.484;13.832;2023-06-19T03:36:13;12.70;99.90
12470;DHT22;36499;46.484;13.832;2023-06-19T03:38:41;12.80;99.90
12470;DHT22;36499;46.484;13.832;2023-06-19T03:41:08;12.80;99.90
12470;DHT22;36499;46.484;13.832;2023-06-19T03:43:36;12.80;99.90
12470;DHT22;36499;46.484;13.832;2023-06-19T03:46:03;12.70;99.90
12470;DHT22;36499;46.484;13.832;2023-06-19T03:48:30;12.70;99.90
12470;DHT22;36499;46.484;13.832;2023-06-19T03:50:58;12.70;99.90
12470;DHT22;36499;46.484;13.832;2023-06-19T03:53:26;12.80;99.90
12470;DHT22;36499;46.484;13.832;2023-06-19T03:55:54;12.80;99.90
12470;DHT22;36499;46.484;13.832;2023-06-19T03:58:21;12.80;99.90
12470;DHT22;36499;46.484;13.832;2023-06-19T04:00:48;12.90;99.90
12470;DHT22;36499;46.484;13.832;2023-06-19T04:03:15;12.90;99.90
12470;DHT22;36499;46.484;13.832;2023-06-19T04:05:42;12.90;99.90
12470;DHT22;36499;46.484;13.832;2023-06-19T04:08:09;12.90;99.90
12470;DHT22;36499;46.484;13.832;2023-06-19T04:10:37;13.00;99.90
12470;DHT22;36499;46.484;13.832;2023-06-19T04:13:05;13.10;99.90
12470;DHT22;36499;46.484;13.832;2023-06-19T04:15:32;13.10;99.90
12470;DHT22;36499;46.484;13.832;2023-06-19T04:18:01;13.10;99.90
12470;DHT22;36499;46.484;13.832;2023-06-19T04:20:28;13.20;99.90
12470;DHT22;36499;46.484;13.832;2023-06-19T04:22:55;13.20;99.90
12470;DHT22;36499;46.484;13.832;2023-06-19T04:25:22;13.30;99.90
12470;DHT22;36499;46.484;13.832;2023-06-19T04:27:50;13.40;99.90
12470;DHT22;36499;46.484;13.832;2023-06-19T04:30:18;13.40;99.90
12470;DHT22;36499;46.484;13.832;2023-06-19T04:32:46;13.50;99.90
12470;DHT22;36499;46.484;13.832;2023-06-19T04:35:13;13.60;99.90
12470;DHT22;36499;46.484;13.832;2023-06-19T04:37:40;13.70;99.90
12470;DHT22;36499;46.484;13.832;2023-06-19T04:40:08;13.70;99.90
12470;DHT22;36499;46.484;13.832;2023-06-19T04:42:36;13.80;99.90
12470;DHT22;36499;46.484;13.832;2023-06-19T04:45:05;14.00;99.90
12470;DHT22;36499;46.484;13.832;2023-06-19T04:47:34;14.20;99.90
12470;DHT22;36499;46.484;13.832;2023-06-19T04:50:02;14.50;99.90
12470;DHT22;36499;46.484;13.832;2023-06-19T04:52:29;14.70;99.90
12470;DHT22;36499;46.484;13.832;2023-06-19T04:54:58;14.90;99.90
12470;DHT22;36499;46.484;13.832;2023-06-19T04:57:25;15.10;99.90
12470;DHT22;36499;46.484;13.832;2023-06-19T04:59:52;15.30;99.90
12470;DHT22;36499;46.484;13.832;2023-06-19T05:02:19;15.50;99.90
12470;DHT22;36499;46.484;13.832;2023-06-19T05:04:48;15.70;99.90
12470;DHT22;36499;46.484;13.832;2023-06-19T05:07:15;15.80;99.90
12470;DHT22;36499;46.484;13.832;2023-06-19T05:09:43;16.00;99.90
12470;DHT22;36499;46.484;13.832;2023-06-19T05:12:10;16.10;99.90
12470;DHT22;36499;46.484;13.832;2023-06-19T05:14:38;16.10;99.90
12470;DHT22;36499;46.484;13.832;2023-06-19T05:17:05;16.20;99.90
12470;DHT22;36499;46.484;13.832;2023-06-19T05:19:34;16.20;99.90
12470;DHT22;36499;46.484;13.832;2023-06-19T05:22:03;16.20;99.90
12470;DHT22;36499;46.484;13.832;2023-06-19T05:24:32;16.20;99.90
12470;DHT22;36499;46.484;13.832;2023-06-19T05:26:59;16.30;99.90
12470;DHT22;36499;46.484;13.832;2023-06-19T05:29:26;16.30;99.90
12470;DHT22;36499;46.484;13.832;2023-06-19T05:31:53;16.40;99.90
12470;DHT22;36499;46.484;13.832;2023-06-19T05:34:20;16.40;99.90
12470;DHT22;36499;46.484;13.832;2023-06-19T05:36:48;16.50;99.90
12470;DHT22;36499;46.484;13.832;2023-06-19T05:39:16;16.60;99.90
12470;DHT22;36499;46.484;13.832;2023-06-19T05:41:44;16.60;99.90
12470;DHT22;36499;46.484;13.832;2023-06-19T05:44:12;16.70;99.90
12470;DHT22;36499;46.484;13.832;2023-06-19T05:46:41;16.80;99.90
12470;DHT22;36499;46.484;13.832;2023-06-19T05:49:08;16.90;99.90
12470;DHT22;36499;46.484;13.832;2023-06-19T05:51:35;17.00;99.90
12470;DHT22;36499;46.484;13.832;2023-06-19T05:54:02;17.10;99.90
12470;DHT22;36499;46.484;13.832;2023-06-19T05:56:31;17.20;99.90
12470;DHT22;36499;46.484;13.832;2023-06-19T05:58:59;17.30;99.90
12470;DHT22;36499;46.484;13.832;2023-06-19T06:01:26;17.40;99.90
12470;DHT22;36499;46.484;13.832;2023-06-19T06:03:54;17.60;99.90
12470;DHT22;36499;46.484;13.832;2023-06-19T06:06:22;17.70;99.90
12470;DHT22;36499;46.484;13.832;2023-06-19T06:08:50;17.80;99.90
12470;DHT22;36499;46.484;13.832;2023-06-19T06:11:18;18.00;99.90
12470;DHT22;36499;46.484;13.832;2023-06-19T06:13:46;18.20;99.90
12470;DHT22;36499;46.484;13.832;2023-06-19T06:16:13;18.30;99.90
12470;DHT22;36499;46.484;13.832;2023-06-19T06:18:41;18.40;99.90
12470;DHT22;36499;46.484;13.832;2023-06-19T06:21:08;18.40;99.90
12470;DHT22;36499;46.484;13.832;2023-06-19T06:23:35;18.50;99.90
12470;DHT22;36499;46.484;13.832;2023-06-19T06:26:02;18.60;99.90
12470;DHT22;36499;46.484;13.832;2023-06-19T06:28:29;18.70;99.90
12470;DHT22;36499;46.484;13.832;2023-06-19T06:30:58;18.80;99.90
12470;DHT22;36499;46.484;13.832;2023-06-19T06:33:25;18.90;99.90
12470;DHT22;36499;46.484;13.832;2023-06-19T06:35:55;19.10;99.90
12470;DHT22;36499;46.484;13.832;2023-06-19T06:38:22;19.20;99.90
12470;DHT22;36499;46.484;13.832;2023-06-19T06:40:49;19.30;99.90
12470;DHT22;36499;46.484;13.832;2023-06-19T06:43:16;19.40;99.90
12470;DHT22;36499;46.484;13.832;2023-06-19T06:45:43;19.50;99.90
12470;DHT22;36499;46.484;13.832;2023-06-19T06:48:12;19.70;99.90
12470;DHT22;36499;46.484;13.832;2023-06-19T06:50:39;19.80;99.90
12470;DHT22;36499;46.484;13.832;2023-06-19T06:53:06;20.00;99.90
12470;DHT22;36499;46.484;13.832;2023-06-19T06:55:33;20.10;99.90
12470;DHT22;36499;46.484;13.832;2023-06-19T06:58:01;20.30;99.90
12470;DHT22;36499;46.484;13.832;2023-06-19T07:00:28;20.40;99.90
12470;DHT22;36499;46.484;13.832;2023-06-19T07:02:55;20.50;99.90
12470;DHT22;36499;46.484;13.832;2023-06-19T07:05:24;20.80;99.90
12470;DHT22;36499;46.484;13.832;2023-06-19T07:07:51;20.90;99.90
12470;DHT22;36499;46.484;13.832;2023-06-19T07:10:18;21.00;99.90
12470;DHT22;36499;46.484;13.832;2023-06-19T07:12:46;21.00;99.90
12470;DHT22;36499;46.484;13.832;2023-06-19T07:15:14;21.20;99.90
12470;DHT22;36499;46.484;13.832;2023-06-19T07:17:42;21.30;99.90
12470;DHT22;36499;46.484;13.832;2023-06-19T07:20:10;21.30;99.90
12470;DHT22;36499;46.484;13.832;2023-06-19T07:22:39;21.40;99.90
12470;DHT22;36499;46.484;13.832;2023-06-19T07:25:07;21.50;99.90
12470;DHT22;36499;46.484;13.832;2023-06-19T07:27:36;21.60;99.90
12470;DHT22;36499;46.484;13.832;2023-06-19T07:30:04;21.70;99.90
12470;DHT22;36499;46.484;13.832;2023-06-19T07:32:33;21.80;99.90
12470;DHT22;36499;46.484;13.832;2023-06-19T07:35:00;21.90;99.90
12470;DHT22;36499;46.484;13.832;2023-06-19T07:37:27;22.00;99.90
12470;DHT22;36499;46.484;13.832;2023-06-19T07:39:56;22.00;99.90
12470;DHT22;36499;46.484;13.832;2023-06-19T07:42:23;22.10;99.90
12470;DHT22;36499;46.484;13.832;2023-06-19T07:44:50;22.20;99.90
12470;DHT22;36499;46.484;13.832;2023-06-19T07:47:17;22.30;99.90
12470;DHT22;36499;46.484;13.832;2023-06-19T07:49:46;22.30;99.90
12470;DHT22;36499;46.484;13.832;2023-06-19T07:52:13;22.50;99.90
12470;DHT22;36499;46.484;13.832;2023-06-19T07:54:55;22.50;99.90
12470;DHT22;36499;46.484;13.832;2023-06-19T07:57:25;22.60;99.90
12470;DHT22;36499;46.484;13.832;2023-06-19T07:59:53;22.80;99.90
12470;DHT22;36499;46.484;13.832;2023-06-19T08:02:21;23.00;99.90
12470;DHT22;36499;46.484;13.832;2023-06-19T08:04:48;23.20;99.90
12470;DHT22;36499;46.484;13.832;2023-06-19T08:07:15;23.20;99.90
12470;DHT22;36499;46.484;13.832;2023-06-19T08:09:42;23.30;99.90
12470;DHT22;36499;46.484;13.832;2023-06-19T08:12:11;23.40;99.90
12470;DHT22;36499;46.484;13.832;2023-06-19T08:14:38;23.60;99.90
12470;DHT22;36499;46.484;13.832;2023-06-19T08:17:05;23.60;99.90
12470;DHT22;36499;46.484;13.832;2023-06-19T08:19:33;23.60;99.90
12470;DHT22;36499;46.484;13.832;2023-06-19T08:22:00;23.70;99.90
12470;DHT22;36499;46.484;13.832;2023-06-19T08:24:28;23.80;99.90
12470;DHT22;36499;46.484;13.832;2023-06-19T08:26:55;23.80;99.90
12470;DHT22;36499;46.484;13.832;2023-06-19T08:29:23;23.90;99.90
12470;DHT22;36499;46.484;13.832;2023-06-19T08:31:50;23.90;99.90
12470;DHT22;36499;46.484;13.832;2023-06-19T08:34:18;24.00;99.90
12470;DHT22;36499;46.484;13.832;2023-06-19T08:36:45;24.20;99.90
12470;DHT22;36499;46.484;13.832;2023-06-19T08:39:12;24.50;99.90
12470;DHT22;36499;46.484;13.832;2023-06-19T08:41:39;24.60;99.90
12470;DHT22;36499;46.484;13.832;2023-06-19T08:44:07;24.50;99.90
12470;DHT22;36499;46.484;13.832;2023-06-19T08:46:36;24.40;99.90
12470;DHT22;36499;46.484;13.832;2023-06-19T08:49:03;24.30;99.90
12470;DHT22;36499;46.484;13.832;2023-06-19T08:51:31;24.30;99.90
12470;DHT22;36499;46.484;13.832;2023-06-19T08:54:01;24.50;99.90
12470;DHT22;36499;46.484;13.832;2023-06-19T08:56:30;24.50;99.90
12470;DHT22;36499;46.484;13.832;2023-06-19T08:59:08;24.70;99.90
12470;DHT22;36499;46.484;13.832;2023-06-19T09:01:37;24.90;99.90
12470;DHT22;36499;46.484;13.832;2023-06-19T09:04:09;25.10;99.90
12470;DHT22;36499;46.484;13.832;2023-06-19T09:06:48;25.00;99.90
12470;DHT22;36499;46.484;13.832;2023-06-19T09:09:17;25.10;99.90
12470;DHT22;36499;46.484;13.832;2023-06-19T09:11:57;25.30;99.90
12470;DHT22;36499;46.484;13.832;2023-06-19T09:14:32;25.40;99.90
12470;DHT22;36499;46.484;13.832;2023-06-19T09:17:01;25.40;99.90
12470;DHT22;36499;46.484;13.832;2023-06-19T09:19:30;25.30;99.90
12470;DHT22;36499;46.484;13.832;2023-06-19T09:22:02;25.50;99.90
12470;DHT22;36499;46.484;13.832;2023-06-19T09:24:34;25.60;99.90
12470;DHT22;36499;46.484;13.832;2023-06-19T09:27:08;25.70;99.90
12470;DHT22;36499;46.484;13.832;2023-06-19T09:29:39;25.60;99.90
12470;DHT22;36499;46.484;13.832;2023-06-19T09:32:18;25.60;99.90
12470;DHT22;36499;46.484;13.832;2023-06-19T09:34:47;25.70;99.90
12470;DHT22;36499;46.484;13.832;2023-06-19T09:37:16;25.90;99.60
12470;DHT22;36499;46.484;13.832;2023-06-19T09:39:52;26.10;98.00
12470;DHT22;36499;46.484;13.832;2023-06-19T09:42:24;26.00;98.90
12470;DHT22;36499;46.484;13.832;2023-06-19T09:44:57;26.00;99.40
12470;DHT22;36499;46.484;13.832;2023-06-19T09:47:31;25.90;98.40
12470;DHT22;36499;46.484;13.832;2023-06-19T09:49:59;26.00;96.50
12470;DHT22;36499;46.484;13.832;2023-06-19T09:52:28;26.20;98.20
12470;DHT22;36499;46.484;13.832;2023-06-19T09:54:56;26.40;98.00
12470;DHT22;36499;46.484;13.832;2023-06-19T09:57:23;26.50;96.20
12470;DHT22;36499;46.484;13.832;2023-06-19T09:59:53;26.60;97.20
12470;DHT22;36499;46.484;13.832;2023-06-19T10:02:23;26.80;96.70
12470;DHT22;36499;46.484;13.832;2023-06-19T10:04:55;27.00;96.80
12470;DHT22;36499;46.484;13.832;2023-06-19T10:07:33;27.20;97.40
12470;DHT22;36499;46.484;13.832;2023-06-19T10:10:03;27.50;96.00
12470;DHT22;36499;46.484;13.832;2023-06-19T10:12:38;27.60;93.70
12470;DHT22;36499;46.484;13.832;2023-06-19T10:15:17;27.60;94.20
12470;DHT22;36499;46.484;13.832;2023-06-19T10:17:48;28.00;93.90
12470;DHT22;36499;46.484;13.832;2023-06-19T10:20:26;28.10;90.80
12470;DHT22;36499;46.484;13.832;2023-06-19T10:22:59;28.10;92.00
12470;DHT22;36499;46.484;13.832;2023-06-19T10:25:31;28.10;91.50
12470;DHT22;36499;46.484;13.832;2023-06-19T10:28:00;28.20;88.70
12470;DHT22;36499;46.484;13.832;2023-06-19T10:30:28;28.30;88.40
12470;DHT22;36499;46.484;13.832;2023-06-19T10:32:55;28.50;84.60
12470;DHT22;36499;46.484;13.832;2023-06-19T10:35:24;28.40;84.10
12470;DHT22;36499;46.484;13.832;2023-06-19T10:37:51;28.50;81.30
12470;DHT22;36499;46.484;13.832;2023-06-19T10:40:19;28.50;90.00
12470;DHT22;36499;46.484;13.832;2023-06-19T10:42:46;29.00;91.40
12470;DHT22;36499;46.484;13.832;2023-06-19T10:45:14;29.20;92.20
12470;DHT22;36499;46.484;13.832;2023-06-19T10:47:45;29.40;92.50
12470;DHT22;36499;46.484;13.832;2023-06-19T10:50:13;29.60;90.90
12470;DHT22;36499;46.484;13.832;2023-06-19T10:52:44;29.70;90.70
12470;DHT22;36499;46.484;13.832;2023-06-19T10:55:12;29.70;92.00
12470;DHT22;36499;46.484;13.832;2023-06-19T10:57:40;29.50;90.90
12470;DHT22;36499;46.484;13.832;2023-06-19T11:00:11;29.10;91.50
12470;DHT22;36499;46.484;13.832;2023-06-19T11:02:49;28.70;91.30
12470;DHT22;36499;46.484;13.832;2023-06-19T11:05:18;28.30;91.70
12470;DHT22;36499;46.484;13.832;2023-06-19T11:07:52;28.10;92.40
12470;DHT22;36499;46.484;13.832;2023-06-19T11:10:21;27.80;92.60
12470;DHT22;36499;46.484;13.832;2023-06-19T11:12:50;27.40;92.50
12470;DHT22;36499;46.484;13.832;2023-06-19T11:15:28;27.20;93.00
12470;DHT22;36499;46.484;13.832;2023-06-19T11:17:56;27.00;92.40
12470;DHT22;36499;46.484;13.832;2023-06-19T11:20:23;26.90;93.60
12470;DHT22;36499;46.484;13.832;2023-06-19T11:23:00;26.70;93.60
12470;DHT22;36499;46.484;13.832;2023-06-19T11:25:35;26.60;94.70
12470;DHT22;36499;46.484;13.832;2023-06-19T11:28:03;26.50;94.80
12470;DHT22;36499;46.484;13.832;2023-06-19T11:30:31;26.40;94.50
12470;DHT22;36499;46.484;13.832;2023-06-19T11:33:01;26.40;94.40
12470;DHT22;36499;46.484;13.832;2023-06-19T11:35:32;26.30;94.20
12470;DHT22;36499;46.484;13.832;2023-06-19T11:38:03;26.30;95.30
12470;DHT22;36499;46.484;13.832;2023-06-19T11:40:39;26.30;94.40
12470;DHT22;36499;46.484;13.832;2023-06-19T11:43:06;26.30;95.30
12470;DHT22;36499;46.484;13.832;2023-06-19T11:45:45;26.30;94.90
12470;DHT22;36499;46.484;13.832;2023-06-19T11:48:13;26.30;95.40
12470;DHT22;36499;46.484;13.832;2023-06-19T11:50:40;26.30;95.50
12470;DHT22;36499;46.484;13.832;2023-06-19T11:53:08;26.20;95.50
12470;DHT22;36499;46.484;13.832;2023-06-19T11:55:35;26.20;95.50
12470;DHT22;36499;46.484;13.832;2023-06-19T11:58:02;26.10;96.20
12470;DHT22;36499;46.484;13.832;2023-06-19T12:00:29;26.00;96.30
12470;DHT22;36499;46.484;13.832;2023-06-19T12:02:56;26.00;96.80
12470;DHT22;36499;46.484;13.832;2023-06-19T12:05:24;26.00;97.10
12470;DHT22;36499;46.484;13.832;2023-06-19T12:07:54;25.90;97.50
12470;DHT22;36499;46.484;13.832;2023-06-19T12:10:22;25.80;97.20
12470;DHT22;36499;46.484;13.832;2023-06-19T12:12:50;25.90;97.10
12470;DHT22;36499;46.484;13.832;2023-06-19T12:15:17;25.90;98.10
12470;DHT22;36499;46.484;13.832;2023-06-19T12:17:45;26.10;99.60
12470;DHT22;36499;46.484;13.832;2023-06-19T12:20:13;26.30;98.20
12470;DHT22;36499;46.484;13.832;2023-06-19T12:22:40;26.30;98.50
12470;DHT22;36499;46.484;13.832;2023-06-19T12:25:08;26.50;99.70
12470;DHT22;36499;46.484;13.832;2023-06-19T12:27:37;26.90;99.90
12470;DHT22;36499;46.484;13.832;2023-06-19T12:30:06;27.20;98.30
12470;DHT22;36499;46.484;13.832;2023-06-19T12:32:40;27.50;98.70
12470;DHT22;36499;46.484;13.832;2023-06-19T12:35:07;27.90;98.00
12470;DHT22;36499;46.484;13.832;2023-06-19T12:37:35;28.20;98.50
12470;DHT22;36499;46.484;13.832;2023-06-19T12:40:03;28.60;98.50
12470;DHT22;36499;46.484;13.832;2023-06-19T12:42:34;28.90;97.10
12470;DHT22;36499;46.484;13.832;2023-06-19T12:45:03;29.20;96.10
12470;DHT22;36499;46.484;13.832;2023-06-19T12:47:31;29.40;96.10
12470;DHT22;36499;46.484;13.832;2023-06-19T12:49:59;29.60;96.70
12470;DHT22;36499;46.484;13.832;2023-06-19T12:52:26;29.70;94.00
12470;DHT22;36499;46.484;13.832;2023-06-19T12:54:53;29.60;93.30
12470;DHT22;36499;46.484;13.832;2023-06-19T12:57:20;29.80;94.60
12470;DHT22;36499;46.484;13.832;2023-06-19T12:59:48;30.00;93.80
12470;DHT22;36499;46.484;13.832;2023-06-19T13:02:16;30.10;92.20
12470;DHT22;36499;46.484;13.832;2023-06-19T13:04:43;30.30;92.30
12470;DHT22;36499;46.484;13.832;2023-06-19T13:07:10;30.30;91.70
12470;DHT22;36499;46.484;13.832;2023-06-19T13:09:38;30.30;90.50
12470;DHT22;36499;46.484;13.832;2023-06-19T13:12:06;30.20;89.80
12470;DHT22;36499;46.484;13.832;2023-06-19T13:14:33;30.20;90.50
12470;DHT22;36499;46.484;13.832;2023-06-19T13:17:00;30.10;91.20
12470;DHT22;36499;46.484;13.832;2023-06-19T13:19:29;30.20;91.50
12470;DHT22;36499;46.484;13.832;2023-06-19T13:21:56;30.10;89.50
12470;DHT22;36499;46.484;13.832;2023-06-19T13:24:23;30.00;90.20
12470;DHT22;36499;46.484;13.832;2023-06-19T13:26:51;30.00;90.40
12470;DHT22;36499;46.484;13.832;2023-06-19T13:29:18;29.70;88.70
12470;DHT22;36499;46.484;13.832;2023-06-19T13:31:45;29.50;90.70
12470;DHT22;36499;46.484;13.832;2023-06-19T13:34:13;29.20;91.30
12470;DHT22;36499;46.484;13.832;2023-06-19T13:36:41;29.00;92.00
12470;DHT22;36499;46.484;13.832;2023-06-19T13:39:08;28.70;93.80
12470;DHT22;36499;46.484;13.832;2023-06-19T13:41:36;28.50;94.20
12470;DHT22;36499;46.484;13.832;2023-06-19T13:44:03;28.30;94.70
12470;DHT22;36499;46.484;13.832;2023-06-19T13:46:31;28.20;94.90
12470;DHT22;36499;46.484;13.832;2023-06-19T13:48:58;28.30;95.00
12470;DHT22;36499;46.484;13.832;2023-06-19T13:51:26;28.50;93.10
12470;DHT22;36499;46.484;13.832;2023-06-19T13:53:55;28.40;93.80
12470;DHT22;36499;46.484;13.832;2023-06-19T13:56:22;28.30;94.60
12470;DHT22;36499;46.484;13.832;2023-06-19T13:58:49;28.20;94.40
12470;DHT22;36499;46.484;13.832;2023-06-19T14:01:16;28.10;93.00
12470;DHT22;36499;46.484;13.832;2023-06-19T14:03:44;27.90;93.60
12470;DHT22;36499;46.484;13.832;2023-06-19T14:06:11;27.90;93.70
12470;DHT22;36499;46.484;13.832;2023-06-19T14:08:39;27.80;94.20
12470;DHT22;36499;46.484;13.832;2023-06-19T14:11:07;27.60;93.60
12470;DHT22;36499;46.484;13.832;2023-06-19T14:13:35;27.80;95.40
12470;DHT22;36499;46.484;13.832;2023-06-19T14:16:02;27.90;96.90
12470;DHT22;36499;46.484;13.832;2023-06-19T14:18:29;28.10;95.30
12470;DHT22;36499;46.484;13.832;2023-06-19T14:20:56;28.20;96.30
12470;DHT22;36499;46.484;13.832;2023-06-19T14:23:23;28.10;95.30
12470;DHT22;36499;46.484;13.832;2023-06-19T14:25:50;28.00;95.80
12470;DHT22;36499;46.484;13.832;2023-06-19T14:28:18;27.80;96.00
12470;DHT22;36499;46.484;13.832;2023-06-19T14:30:46;27.50;96.90
12470;DHT22;36499;46.484;13.832;2023-06-19T14:33:13;27.30;94.20
12470;DHT22;36499;46.484;13.832;2023-06-19T14:35:41;27.10;94.50
12470;DHT22;36499;46.484;13.832;2023-06-19T14:38:11;26.80;94.10
12470;DHT22;36499;46.484;13.832;2023-06-19T14:40:38;26.50;94.60
12470;DHT22;36499;46.484;13.832;2023-06-19T14:43:06;26.10;95.40
12470;DHT22;36499;46.484;13.832;2023-06-19T14:45:35;25.80;96.90
12470;DHT22;36499;46.484;13.832;2023-06-19T14:48:05;25.60;97.90
12470;DHT22;36499;46.484;13.832;2023-06-19T14:50:34;25.60;99.90
12470;DHT22;36499;46.484;13.832;2023-06-19T14:53:01;25.40;99.90
12470;DHT22;36499;46.484;13.832;2023-06-19T14:55:28;25.40;99.90
12470;DHT22;36499;46.484;13.832;2023-06-19T14:57:56;25.40;99.90
12470;DHT22;36499;46.484;13.832;2023-06-19T15:00:23;25.40;99.90
12470;DHT22;36499;46.484;13.832;2023-06-19T15:02:51;25.40;99.90
12470;DHT22;36499;46.484;13.832;2023-06-19T15:05:18;25.30;99.90
12470;DHT22;36499;46.484;13.832;2023-06-19T15:07:45;25.30;99.90
12470;DHT22;36499;46.484;13.832;2023-06-19T15:10:13;25.30;99.90
12470;DHT22;36499;46.484;13.832;2023-06-19T15:12:40;25.30;99.90
12470;DHT22;36499;46.484;13.832;2023-06-19T15:15:07;25.30;99.90
12470;DHT22;36499;46.484;13.832;2023-06-19T15:17:35;25.40;99.90
12470;DHT22;36499;46.484;13.832;2023-06-19T15:20:04;25.60;99.90
12470;DHT22;36499;46.484;13.832;2023-06-19T15:22:33;25.80;99.90